createdAt,value
2019-02-12T00:01:27.368Z,12.88
2019-02-12T00:03:55.153Z,12.93
2019-02-12T00:06:22.892Z,12.77
2019-02-12T00:08:50.673Z,12.76
2019-02-12T00:11:18.505Z,13.38
2019-02-12T00:13:46.264Z,12.70
2019-02-12T00:16:14.108Z,12.73
2019-02-12T00:18:41.858Z,12.70
2019-02-12T00:21:09.653Z,13.43
2019-02-12T00:23:37.461Z,12.80
2019-02-12T00:26:05.275Z,12.91
2019-02-12T00:28:33.109Z,12.80
2019-02-12T00:31:00.974Z,12.98
2019-02-12T00:33:28.876Z,13.01
2019-02-12T00:35:56.712Z,13.02
2019-02-12T00:38:24.532Z,12.84
2019-02-12T00:40:52.319Z,12.97
2019-02-12T00:43:20.116Z,12.73
2019-02-12T00:45:47.874Z,12.82
2019-02-12T00:48:15.688Z,12.89
2019-02-12T00:50:43.466Z,12.76
2019-02-12T00:53:11.288Z,12.84
2019-02-12T00:55:39.040Z,13.00
2019-02-12T00:58:06.804Z,12.61
2019-02-12T01:00:34.563Z,12.47
2019-02-12T01:03:02.445Z,12.53
2019-02-12T01:05:30.267Z,12.72
2019-02-12T01:07:58.015Z,12.44
2019-02-12T01:10:25.789Z,12.61
2019-02-12T01:12:53.652Z,12.42
2019-02-12T01:15:21.529Z,13.00
2019-02-12T01:17:49.287Z,12.44
2019-02-12T01:20:17.067Z,12.48
2019-02-12T01:22:44.889Z,12.60
2019-02-12T01:25:12.652Z,12.61
2019-02-12T01:27:40.428Z,12.51
2019-02-12T01:30:10.321Z,12.60
2019-02-12T01:32:38.440Z,12.58
2019-02-12T01:35:06.212Z,12.82
2019-02-12T01:37:33.957Z,12.56
2019-02-12T01:40:01.835Z,12.72
2019-02-12T01:42:29.649Z,12.92
2019-02-12T01:44:57.481Z,12.66
2019-02-12T01:47:25.251Z,12.80
2019-02-12T01:49:52.989Z,12.70
2019-02-12T01:52:20.778Z,12.76
2019-02-12T01:54:48.582Z,12.53
2019-02-12T01:57:16.350Z,12.65
2019-02-12T01:59:44.131Z,12.96
2019-02-12T02:02:11.873Z,12.67
2019-02-12T02:04:39.680Z,12.65
2019-02-12T02:07:07.446Z,12.73
2019-02-12T02:09:35.225Z,12.82
2019-02-12T02:18:21.919Z,12.92
2019-02-12T02:20:49.810Z,13.21
2019-02-12T02:23:17.556Z,12.81
2019-02-12T02:25:45.381Z,12.89
2019-02-12T02:28:13.181Z,12.92
2019-02-12T02:30:40.925Z,12.62
2019-02-12T02:33:09.043Z,12.50
2019-02-12T02:35:36.805Z,12.65
2019-02-12T02:38:04.622Z,12.47
2019-02-12T02:40:32.416Z,12.61
2019-02-12T02:43:00.319Z,12.48
2019-02-12T02:45:28.188Z,13.31
2019-02-12T02:47:56.019Z,12.79
2019-02-12T02:50:23.796Z,12.49
2019-02-12T02:52:51.564Z,12.48
2019-02-12T02:55:19.311Z,12.57
2019-02-12T02:57:47.068Z,12.44
2019-02-12T03:00:14.903Z,12.37
2019-02-12T03:02:42.697Z,12.49
2019-02-12T03:05:10.596Z,12.65
2019-02-12T03:07:38.409Z,12.73
2019-02-12T03:10:06.345Z,12.71
2019-02-12T03:12:34.180Z,12.39
2019-02-12T03:15:01.934Z,12.70
2019-02-12T03:17:29.760Z,12.71
2019-02-12T03:19:57.665Z,12.78
2019-02-12T03:22:25.508Z,12.99
2019-02-12T03:24:53.321Z,13.18
2019-02-12T03:27:21.094Z,13.00
2019-02-12T03:29:48.888Z,12.98
2019-02-12T03:32:16.726Z,12.69
2019-02-12T03:34:44.608Z,12.60
2019-02-12T03:37:12.436Z,12.49
2019-02-12T03:39:40.189Z,12.43
2019-02-12T03:42:07.974Z,12.34
2019-02-12T03:44:35.764Z,12.47
2019-02-12T03:47:03.509Z,12.87
2019-02-12T03:49:31.403Z,12.63
2019-02-12T03:51:59.156Z,12.64
2019-02-12T03:54:26.942Z,13.05
2019-02-12T03:56:54.818Z,12.40
2019-02-12T03:59:22.548Z,12.33
2019-02-12T04:01:50.292Z,12.39
2019-02-12T04:04:18.182Z,12.27
2019-02-12T04:06:45.933Z,12.18
2019-02-12T04:09:13.696Z,12.38
2019-02-12T04:11:53.429Z,12.47
2019-02-12T04:14:21.192Z,12.48
2019-02-12T04:16:48.927Z,12.51
2019-02-12T04:19:16.693Z,12.33
2019-02-12T04:21:44.469Z,12.34
2019-02-12T04:24:12.276Z,12.40
2019-02-12T04:26:40.058Z,12.56
2019-02-12T04:29:07.821Z,12.98
2019-02-12T04:31:35.673Z,12.49
2019-02-12T04:34:03.479Z,12.48
2019-02-12T04:36:31.322Z,12.39
2019-02-12T04:38:59.138Z,12.52
2019-02-12T04:41:26.892Z,12.62
2019-02-12T04:43:54.726Z,13.04
2019-02-12T04:46:22.482Z,12.48
2019-02-12T04:48:50.252Z,12.26
2019-02-12T04:51:18.036Z,12.30
2019-02-12T04:53:45.790Z,12.35
2019-02-12T04:56:13.580Z,12.41
2019-02-12T04:58:41.316Z,12.38
2019-02-12T05:01:09.079Z,12.44
2019-02-12T05:03:36.984Z,12.34
2019-02-12T05:06:04.835Z,12.34
2019-02-12T05:08:51.980Z,12.31
2019-02-12T05:11:19.827Z,12.32
2019-02-12T05:13:47.853Z,12.26
2019-02-12T05:16:15.684Z,12.45
2019-02-12T05:18:43.521Z,12.57
2019-02-12T05:21:11.264Z,12.39
2019-02-12T05:23:39.052Z,12.29
2019-02-12T05:26:06.820Z,12.25
2019-02-12T05:28:34.666Z,12.17
2019-02-12T05:31:02.629Z,12.29
2019-02-12T05:33:30.597Z,12.51
2019-02-12T05:35:58.483Z,12.34
2019-02-12T05:38:26.415Z,12.31
2019-02-12T05:40:54.267Z,12.25
2019-02-12T05:43:22.068Z,12.27
2019-02-12T05:45:49.928Z,12.50
2019-02-12T05:48:17.757Z,12.31
2019-02-12T05:50:45.721Z,12.60
2019-02-12T05:53:14.113Z,12.52
2019-02-12T05:55:41.996Z,12.44
2019-02-12T05:58:09.915Z,12.59
2019-02-12T06:00:37.870Z,12.47
2019-02-12T06:03:05.655Z,12.45
2019-02-12T06:05:33.484Z,12.29
2019-02-12T06:08:01.292Z,12.31
2019-02-12T06:10:29.148Z,12.35
2019-02-12T06:12:56.886Z,12.43
2019-02-12T06:15:24.701Z,12.49
2019-02-12T06:17:52.634Z,12.41
2019-02-12T06:20:20.585Z,12.46
2019-02-12T06:22:48.673Z,12.63
2019-02-12T06:25:16.414Z,12.55
2019-02-12T06:27:44.165Z,12.70
2019-02-12T06:30:11.904Z,13.20
2019-02-12T06:32:39.762Z,12.98
2019-02-12T06:35:07.824Z,12.95
2019-02-12T06:37:35.560Z,13.18
2019-02-12T06:40:03.705Z,13.28
2019-02-12T06:42:31.534Z,13.08
2019-02-12T06:44:59.438Z,13.16
2019-02-12T06:47:27.209Z,13.03
2019-02-12T06:49:54.965Z,12.98
2019-02-12T06:52:22.751Z,13.15
2019-02-12T06:54:50.521Z,13.40
2019-02-12T06:57:18.294Z,13.64
2019-02-12T06:59:46.150Z,13.45
2019-02-12T07:02:32.241Z,13.28
2019-02-12T07:05:00.024Z,13.36
2019-02-12T07:08:02.575Z,13.51
2019-02-12T07:10:33.316Z,13.78
2019-02-12T07:13:16.502Z,13.63
2019-02-12T07:16:00.433Z,13.48
2019-02-12T07:18:46.460Z,13.50
2019-02-12T07:21:42.864Z,13.57
2019-02-12T07:24:35.920Z,13.46
2019-02-12T07:27:31.945Z,13.33
2019-02-12T07:30:12.661Z,13.99
2019-02-12T07:32:50.056Z,13.92
2019-02-12T07:35:46.324Z,13.59
2019-02-12T07:38:39.541Z,13.60
2019-02-12T07:41:24.481Z,13.59
2019-02-12T07:44:04.298Z,14.21
2019-02-12T07:46:50.457Z,13.64
2019-02-12T07:49:28.525Z,13.72
2019-02-12T07:52:21.895Z,14.28
2019-02-12T07:54:52.976Z,14.14
2019-02-12T07:57:45.916Z,13.76
2019-02-12T08:00:17.981Z,13.69
2019-02-12T08:03:11.294Z,13.79
2019-02-12T08:05:51.287Z,13.88
2019-02-12T08:08:47.649Z,13.93
2019-02-12T08:11:18.252Z,14.11
2019-02-12T08:14:02.314Z,13.82
2019-02-12T08:16:42.767Z,13.81
2019-02-12T08:19:24.784Z,14.00
2019-02-12T08:22:30.357Z,14.24
2019-02-12T08:25:04.143Z,14.03
2019-02-12T08:27:57.006Z,13.94
2019-02-12T08:30:46.396Z,14.43
2019-02-12T08:33:33.433Z,14.67
2019-02-12T08:36:20.452Z,14.05
2019-02-12T08:39:07.606Z,14.66
2019-02-12T08:41:53.475Z,14.17
2019-02-12T08:44:25.666Z,14.29
2019-02-12T08:47:18.869Z,14.89
2019-02-12T08:50:05.899Z,14.33
2019-02-12T08:52:52.941Z,14.33
2019-02-12T08:55:24.493Z,14.50
2019-02-12T08:58:05.219Z,14.94
2019-02-12T09:00:51.964Z,14.85
2019-02-12T09:03:43.577Z,14.29
2019-02-12T09:06:15.790Z,14.54
2019-02-12T09:09:01.576Z,14.33
2019-02-12T09:11:51.737Z,14.15
2019-02-12T09:14:38.789Z,14.35
2019-02-12T09:17:35.079Z,13.86
2019-02-12T09:20:22.116Z,14.69
2019-02-12T09:23:08.164Z,14.54
2019-02-12T09:25:38.975Z,14.00
2019-02-12T09:28:13.125Z,14.81
2019-02-12T09:31:09.106Z,14.73
2019-02-12T09:33:50.224Z,14.57
2019-02-12T09:36:40.386Z,14.29
2019-02-12T09:39:35.281Z,14.07
2019-02-12T09:42:21.888Z,14.84
2019-02-12T09:44:56.163Z,14.17
2019-02-12T09:47:43.266Z,14.11
2019-02-12T09:50:17.234Z,14.21
2019-02-12T09:53:07.368Z,14.17
2019-02-12T09:55:57.303Z,14.85
2019-02-12T09:58:28.814Z,15.28
2019-02-12T10:00:59.364Z,14.66
2019-02-12T10:03:33.428Z,14.36
2019-02-12T10:06:22.226Z,14.71
2019-02-12T10:09:09.650Z,14.92
2019-02-12T10:11:55.397Z,14.83
2019-02-12T10:14:41.435Z,14.73
2019-02-12T10:17:28.540Z,14.58
2019-02-12T10:20:03.289Z,14.23
2019-02-12T10:22:52.201Z,14.21
2019-02-12T10:25:28.849Z,15.30
2019-02-12T10:27:59.605Z,14.16
2019-02-12T10:30:49.460Z,14.70
2019-02-12T10:33:17.404Z,13.97
2019-02-12T10:35:45.184Z,14.23
2019-02-12T10:40:40.712Z,14.19
2019-02-12T10:43:08.530Z,14.25
2019-02-12T10:45:36.277Z,14.35
2019-02-12T10:48:04.023Z,14.21
2019-02-12T10:50:31.792Z,14.65
2019-02-12T10:52:59.570Z,14.93
2019-02-12T10:55:27.313Z,14.47
2019-02-12T10:57:55.084Z,14.96
2019-02-12T11:00:22.858Z,14.44
2019-02-12T11:02:50.699Z,14.43
2019-02-12T11:05:18.527Z,14.81
2019-02-12T11:07:46.360Z,14.59
2019-02-12T11:10:14.119Z,14.65
2019-02-12T11:12:41.885Z,14.85
2019-02-12T11:15:09.733Z,14.81
2019-02-12T11:17:38.643Z,15.01
2019-02-12T11:20:06.444Z,14.89
2019-02-12T11:22:34.206Z,14.32
2019-02-12T11:25:01.965Z,14.59
2019-02-12T11:27:29.809Z,14.90
2019-02-12T11:29:57.581Z,14.62
2019-02-12T11:32:25.518Z,14.37
2019-02-12T11:34:53.379Z,14.62
2019-02-12T11:37:21.142Z,14.94
2019-02-12T11:39:48.987Z,15.17
2019-02-12T11:42:16.730Z,14.88
2019-02-12T11:44:44.555Z,14.70
2019-02-12T11:47:12.339Z,14.07
2019-02-12T11:49:40.156Z,13.99
2019-02-12T11:52:08.121Z,13.46
2019-02-12T11:54:43.440Z,13.44
2019-02-12T11:57:05.392Z,14.19
2019-02-12T11:59:33.189Z,14.65
2019-02-12T12:02:00.945Z,14.99
2019-02-12T12:04:28.850Z,14.59
2019-02-12T12:06:56.743Z,14.66
2019-02-12T12:09:24.501Z,15.08
2019-02-12T12:11:52.340Z,14.68
2019-02-12T12:14:20.110Z,14.86
2019-02-12T12:16:47.849Z,14.53
2019-02-12T12:19:15.666Z,14.34
2019-02-12T12:21:43.485Z,14.30
2019-02-12T12:24:11.291Z,14.92
2019-02-12T12:26:39.032Z,14.73
2019-02-12T12:29:06.828Z,14.50
2019-02-12T12:31:34.617Z,14.35
2019-02-12T12:34:02.505Z,14.47
2019-02-12T12:36:30.332Z,14.58
2019-02-12T12:38:58.081Z,14.47
2019-02-12T12:41:25.917Z,14.66
2019-02-12T12:43:53.662Z,14.74
2019-02-12T12:46:21.431Z,14.58
2019-02-12T12:48:49.176Z,15.11
2019-02-12T12:51:17.035Z,14.94
2019-02-12T12:53:44.865Z,14.78
2019-02-12T12:56:12.988Z,14.84
2019-02-12T12:58:40.798Z,14.76
2019-02-12T13:01:08.613Z,14.93
2019-02-12T13:03:36.469Z,15.15
2019-02-12T13:06:04.279Z,15.03
2019-02-12T13:08:32.023Z,15.36
2019-02-12T13:11:00.116Z,15.53
2019-02-12T13:13:27.887Z,14.96
2019-02-12T13:15:56.005Z,15.66
2019-02-12T13:18:23.841Z,14.99
2019-02-12T13:20:51.603Z,15.23
2019-02-12T13:23:19.356Z,14.96
2019-02-12T13:25:47.186Z,15.10
2019-02-12T13:28:15.024Z,15.04
2019-02-12T13:30:42.881Z,15.23
2019-02-12T13:33:10.705Z,15.14
2019-02-12T13:35:38.479Z,15.42
2019-02-12T13:38:06.232Z,15.11
2019-02-12T13:40:34.026Z,15.20
2019-02-12T13:43:01.780Z,15.22
2019-02-12T13:45:29.560Z,15.14
2019-02-12T13:47:57.558Z,15.24
2019-02-12T13:50:25.384Z,15.79
2019-02-12T13:52:53.161Z,15.40
2019-02-12T13:55:22.606Z,15.79
2019-02-12T13:57:50.607Z,15.44
2019-02-12T14:00:18.387Z,15.93
2019-02-12T14:02:46.164Z,16.04
2019-02-12T14:05:14.924Z,15.67
2019-02-12T14:07:42.772Z,15.31
2019-02-12T14:10:10.697Z,15.31
2019-02-12T14:12:38.484Z,15.39
2019-02-12T14:15:06.828Z,15.55
2019-02-12T14:17:34.624Z,15.55
2019-02-12T14:20:02.489Z,15.70
2019-02-12T14:22:30.405Z,15.44
2019-02-12T14:24:58.173Z,15.59
2019-02-12T14:27:25.917Z,15.52
2019-02-12T14:29:53.961Z,15.50
2019-02-12T14:32:21.712Z,15.58
2019-02-12T14:34:49.468Z,15.61
2019-02-12T14:37:17.277Z,15.56
2019-02-12T14:39:45.016Z,15.94
2019-02-12T14:42:12.788Z,15.58
2019-02-12T14:44:40.650Z,15.79
2019-02-12T14:47:08.705Z,15.67
2019-02-12T14:49:36.555Z,15.68
2019-02-12T14:52:04.387Z,15.60
2019-02-12T14:54:32.184Z,15.63
2019-02-12T14:56:59.971Z,15.64
2019-02-12T14:59:27.760Z,15.95
2019-02-12T15:01:55.526Z,15.83
2019-02-12T15:04:23.815Z,15.82
2019-02-12T15:06:51.628Z,15.74
2019-02-12T15:09:19.550Z,15.76
2019-02-12T15:11:47.326Z,15.81
2019-02-12T15:14:15.092Z,16.08
2019-02-12T15:16:42.931Z,15.87
2019-02-12T15:19:10.768Z,15.95
2019-02-12T15:21:38.572Z,15.99
2019-02-12T15:24:07.817Z,15.86
2019-02-12T15:26:35.955Z,16.04
2019-02-12T15:29:04.649Z,15.90
2019-02-12T15:31:32.484Z,15.51
2019-02-12T15:34:00.225Z,16.01
2019-02-12T15:36:27.996Z,15.93
2019-02-12T15:38:55.734Z,15.93
2019-02-12T15:41:23.552Z,15.97
2019-02-12T15:43:51.387Z,15.98
2019-02-12T15:46:19.148Z,15.88
2019-02-12T15:48:46.930Z,15.94
2019-02-12T15:51:14.846Z,15.97
2019-02-12T15:53:43.027Z,15.90
2019-02-12T15:56:10.942Z,15.92
2019-02-12T15:58:38.754Z,15.87
2019-02-12T16:01:06.574Z,16.06
2019-02-12T16:03:36.063Z,15.96
2019-02-12T16:06:03.917Z,15.98
2019-02-12T16:08:32.105Z,16.05
2019-02-12T16:11:00.121Z,15.97
2019-02-12T16:13:27.873Z,16.06
2019-02-12T16:15:55.692Z,15.97
2019-02-12T16:18:24.925Z,15.86
2019-02-12T16:20:52.826Z,15.95
2019-02-12T16:23:20.607Z,15.93
2019-02-12T16:25:48.429Z,16.00
2019-02-12T16:28:16.249Z,16.07
2019-02-12T16:30:44.055Z,15.99
2019-02-12T16:33:12.350Z,15.99
2019-02-12T16:35:40.187Z,15.99
2019-02-12T16:38:09.421Z,15.94
2019-02-12T16:40:37.224Z,15.98
2019-02-12T16:43:05.025Z,15.94
2019-02-12T16:45:38.347Z,16.01
2019-02-12T16:48:06.177Z,16.08
2019-02-12T16:50:34.336Z,16.06
2019-02-12T16:53:02.548Z,16.12
2019-02-12T16:55:30.493Z,16.18
2019-02-12T16:57:58.375Z,16.24
2019-02-12T17:00:26.203Z,16.21
2019-02-12T17:03:00.491Z,16.25
2019-02-12T17:05:38.192Z,15.54
2019-02-12T17:08:06.090Z,16.29
2019-02-12T17:10:33.938Z,16.30
2019-02-12T17:13:01.736Z,16.31
2019-02-12T17:15:29.572Z,16.35
2019-02-12T17:17:57.420Z,16.26
2019-02-12T17:20:25.366Z,16.35
2019-02-12T17:22:53.152Z,16.38
2019-02-12T17:25:21.041Z,16.41
2019-02-12T17:27:48.822Z,16.37
2019-02-12T17:30:16.629Z,16.42
2019-02-12T17:32:44.512Z,16.47
2019-02-12T17:35:12.248Z,16.51
2019-02-12T17:37:39.998Z,16.51
2019-02-12T17:40:08.719Z,16.53
2019-02-12T17:42:36.702Z,16.53
2019-02-12T17:45:04.635Z,16.51
2019-02-12T17:47:32.381Z,16.28
2019-02-12T17:50:00.299Z,16.59
2019-02-12T17:52:28.068Z,16.50
2019-02-12T17:54:55.863Z,16.49
2019-02-12T17:57:23.628Z,16.56
2019-02-12T17:59:51.389Z,16.55
2019-02-12T18:02:19.169Z,16.53
2019-02-12T18:04:47.325Z,16.56
2019-02-12T18:07:15.369Z,16.47
2019-02-12T18:09:43.118Z,16.50
2019-02-12T18:12:10.912Z,16.54
2019-02-12T18:14:38.723Z,16.59
2019-02-12T18:17:06.719Z,16.58
2019-02-12T18:19:34.564Z,16.57
2019-02-12T18:22:02.481Z,16.58
2019-02-12T18:24:30.350Z,16.52
2019-02-12T18:26:58.235Z,16.49
2019-02-12T18:29:26.027Z,16.60
2019-02-12T18:31:55.309Z,16.61
2019-02-12T18:34:23.155Z,16.60
2019-02-12T18:36:50.936Z,16.54
2019-02-12T18:39:18.690Z,16.54
2019-02-12T18:41:47.125Z,16.61
2019-02-12T18:44:15.147Z,16.61
2019-02-12T18:46:43.013Z,16.60
2019-02-12T18:49:11.313Z,16.58
2019-02-12T18:51:39.191Z,16.60
2019-02-12T18:54:07.037Z,16.61
2019-02-12T18:56:41.433Z,16.61
2019-02-12T18:59:04.324Z,16.55
2019-02-12T19:01:32.176Z,16.52
2019-02-12T19:04:00.164Z,16.59
2019-02-12T19:06:28.302Z,16.62
2019-02-12T19:08:56.099Z,16.53
2019-02-12T19:11:23.849Z,16.62
2019-02-12T19:13:51.690Z,16.67
2019-02-12T19:16:19.638Z,16.75
2019-02-12T19:18:47.524Z,16.67
2019-02-12T19:21:16.491Z,16.60
2019-02-12T19:23:44.375Z,16.67
2019-02-12T19:26:12.343Z,16.70
2019-02-12T19:28:40.225Z,16.63
2019-02-12T19:31:08.014Z,16.63
2019-02-12T19:33:35.763Z,16.63
2019-02-12T19:36:03.680Z,16.65
2019-02-12T19:38:31.740Z,16.70
2019-02-12T19:40:59.616Z,16.70
2019-02-12T19:43:27.360Z,16.80
2019-02-12T19:45:55.176Z,16.61
2019-02-12T19:48:22.975Z,16.75
2019-02-12T19:50:50.894Z,16.72
2019-02-12T19:53:18.711Z,16.65
2019-02-12T19:55:46.657Z,16.68
2019-02-12T19:58:14.448Z,16.80
2019-02-12T20:00:42.212Z,16.70
2019-02-12T20:03:09.998Z,16.66
2019-02-12T20:05:37.781Z,16.79
2019-02-12T20:08:05.569Z,16.67
2019-02-12T20:10:33.391Z,16.68
2019-02-12T20:13:01.160Z,16.67
2019-02-12T20:15:28.976Z,16.65
2019-02-12T20:17:56.757Z,16.67
2019-02-12T20:20:24.558Z,16.60
2019-02-12T20:22:52.462Z,16.69
2019-02-12T20:25:20.359Z,16.72
2019-02-12T20:27:48.139Z,16.71
2019-02-12T20:30:15.977Z,16.72
2019-02-12T20:32:43.806Z,16.77
2019-02-12T20:35:11.910Z,16.69
2019-02-12T20:37:39.681Z,16.61
2019-02-12T20:40:07.899Z,16.72
2019-02-12T20:42:35.688Z,16.75
2019-02-12T20:45:03.860Z,16.74
2019-02-12T20:47:31.661Z,16.71
2019-02-12T20:49:59.427Z,16.72
2019-02-12T20:52:27.519Z,16.74
2019-02-12T20:54:55.422Z,16.68
2019-02-12T20:57:23.293Z,16.68
2019-02-12T20:59:51.042Z,16.64
2019-02-12T21:02:18.971Z,16.70
2019-02-12T21:04:46.740Z,16.68
2019-02-12T21:07:14.618Z,16.75
2019-02-12T21:09:42.411Z,16.63
2019-02-12T21:12:10.308Z,16.71
2019-02-12T21:14:38.172Z,16.70
2019-02-12T21:17:05.932Z,16.69
2019-02-12T21:19:33.809Z,16.74
2019-02-12T21:22:02.202Z,16.64
2019-02-12T21:24:30.128Z,16.71
2019-02-12T21:27:01.292Z,16.75
2019-02-12T21:29:29.095Z,16.80
2019-02-12T21:31:56.907Z,16.78
2019-02-12T21:34:24.674Z,16.81
2019-02-12T21:36:52.591Z,16.77
2019-02-12T21:39:22.727Z,16.70
2019-02-12T21:41:50.478Z,16.72
2019-02-12T21:44:18.358Z,16.70
2019-02-12T21:46:46.123Z,16.70
2019-02-12T21:49:13.890Z,16.61
2019-02-12T21:51:41.648Z,16.70
2019-02-12T21:54:09.383Z,16.86
2019-02-12T21:56:37.260Z,16.73
2019-02-12T21:59:05.109Z,16.71
2019-02-12T22:01:32.887Z,16.69
2019-02-12T22:04:01.028Z,16.72
2019-02-12T22:06:28.848Z,16.68
2019-02-12T22:08:56.597Z,16.73
2019-02-12T22:11:24.332Z,16.69
2019-02-12T22:13:52.165Z,16.71
2019-02-12T22:16:19.982Z,16.68
2019-02-12T22:18:47.730Z,16.76
2019-02-12T22:21:15.482Z,16.79
2019-02-12T22:23:43.369Z,16.78
2019-02-12T22:26:11.205Z,16.75
2019-02-12T22:28:38.995Z,16.74
2019-02-12T22:31:06.851Z,16.72
2019-02-12T22:33:34.709Z,16.74
2019-02-12T22:36:02.475Z,16.79
2019-02-12T22:38:30.223Z,16.69
2019-02-12T22:40:58.031Z,16.68
2019-02-12T22:43:25.857Z,16.63
2019-02-12T22:45:53.742Z,16.77
2019-02-12T22:48:21.549Z,16.67
2019-02-12T22:50:49.402Z,16.65
2019-02-12T22:53:17.229Z,16.64
2019-02-12T22:55:45.021Z,16.64
2019-02-12T22:58:12.780Z,16.58
2019-02-12T23:00:53.307Z,16.70
2019-02-12T23:03:21.117Z,16.65
2019-02-12T23:05:48.909Z,16.65
2019-02-12T23:08:16.849Z,16.79
2019-02-12T23:10:44.616Z,16.64
2019-02-12T23:13:12.379Z,16.72
2019-02-12T23:15:40.166Z,16.63
2019-02-12T23:18:08.012Z,16.56
2019-02-12T23:20:35.814Z,16.52
2019-02-12T23:23:03.749Z,16.54
2019-02-12T23:25:31.530Z,16.49
2019-02-12T23:27:59.358Z,16.50
2019-02-12T23:30:27.513Z,16.55
2019-02-12T23:32:55.292Z,16.50
2019-02-12T23:35:23.063Z,16.54
2019-02-12T23:37:50.997Z,16.61
2019-02-12T23:40:18.901Z,16.54
2019-02-12T23:43:17.201Z,16.63
2019-02-12T23:45:44.973Z,16.54
2019-02-12T23:48:12.986Z,16.53
2019-02-12T23:51:23.574Z,16.60
2019-02-12T23:53:51.496Z,16.49
2019-02-12T23:56:19.839Z,16.55
2019-02-12T23:58:47.861Z,16.56
